Airfield :
LOGIN :

Register | Disclaimer

   EN    FR    IT 

 










Legend :    VFR   Marginal VFR   IFR   Intensive IFR   Very Intensive IFR
Visi :
Ceiling :
>= 8 km
>= 3000ft
5 to 8 km
1000 to 3000 ft
1500m to 5 km
500 to 1000 ft
800 to 1500m
200 to 500 ft
< 800m
< 200 ft
Symbols :   Thunderstorms  Fog  Heavy snow  Heavy precipitations  Wind > 20 kt
SIGMETs :     Misc.  Thunderstorms  Icing  Turbulence  Mountain Waves  Volcanic Ashes







- Airport Elevation : 70 ft
- IATA code : WBG


ETNS - Schleswig

CURRENT METAR :
  • 161645Z 24004KT 4500 MIFG BR FEW130 BKN150 BKN340 15/13 Q1018 GRN GRN BECMG YLO

EXPIRED METARs :
  • 161620Z 23004KT 5000 MIFG BR SCT130 BKN320 15/13 Q1018 WHT WHT BECMG YLO
  • 161601Z 23004KT 5000 BR SCT140 BKN330 16/13 Q1018 WHT WHT BECMG YLO
  • 161520Z 25005KT 6000 BKN140 SCT160 BKN240 17/14 Q1018 WHT BLU TEMPO GRN
  • 161420Z 27008KT 6000 FEW010 BKN140 17/14 Q1018 WHT BLU TEMPO GRN
  • 161411Z 27008KT 6000 SCT010 BKN150 17/14 Q1018 WHT BLU TEMPO GRN

TAF TAF ETNS
Valid from the 16 at 14:00 until the 16 at 23:00 UTC


161324Z 1614/1623 24007KT 8000 NSW SCT012 BKN150
TEMPO 1614/1616 25007KT 4000 BR BKN009 BKN120
BECMG 1616/1618 19005KT 3000 BR SCT005 SCT150
BECMG 1618/1620 VRB02KT 0500 FG SCT001 BY ETGL
No reported NOTAMs for that airfield.



MET'MAP, your aeronautical weather chart ! - Copyright ORBIFLY December 2007 - Disclaimer

ORBIFLY MET'MAP TEAM :

Programming & Development : Alexandra Zaïnal
Concept & Development : Baudouin d'Aumeries
Co-Development & Prog : Marc-Olivier Méhu
Technical & hardware support : Manuel Goepfert

Contact : metmap@orbifly.com




SOURCES & CREDITS :

   NOAA